Time;durP1;ratioP1;P1;durP2;ratioP2;P2;SDS_P1;SDS_P2;PMS_P1;PMS_P2;Temp;Humidity;BMP_temperature;BMP_pressure;BME280_temperature;BME280_humidity;BME280_pressure;Samples;Min_cycle;Max_cycle;Signal;HPM_P1;HPM_P2
2023/04/25 00:00:17;;;;;;;4.90;2.40;;;6.40;99.90;;;;;;5073182;28;20036;-48
2023/04/25 00:02:43;;;;;;;3.10;2.10;;;6.40;99.90;;;;;;5082502;28;20713;-48
2023/04/25 00:05:11;;;;;;;5.38;2.83;;;6.40;99.90;;;;;;5048254;28;20493;-48
2023/04/25 00:07:38;;;;;;;3.47;2.25;;;6.40;99.90;;;;;;5084524;28;20093;-51
2023/04/25 00:10:06;;;;;;;4.03;2.40;;;6.40;99.90;;;;;;5078353;28;20133;-51
2023/04/25 00:12:33;;;;;;;4.20;2.20;;;6.40;99.90;;;;;;5071508;28;20052;-50
2023/04/25 00:15:00;;;;;;;5.25;2.95;;;6.30;99.90;;;;;;5070827;28;20032;-48
2023/04/25 00:17:27;;;;;;;4.95;2.95;;;6.30;99.90;;;;;;5073385;28;20090;-47
2023/04/25 00:19:54;;;;;;;5.22;3.17;;;6.30;99.90;;;;;;5073142;28;20048;-48
2023/04/25 00:22:20;;;;;;;4.50;2.85;;;6.30;99.90;;;;;;5073909;28;20049;-48
2023/04/25 00:24:47;;;;;;;3.75;2.40;;;6.30;99.90;;;;;;5080991;28;20064;-49
2023/04/25 00:27:14;;;;;;;6.53;2.75;;;6.20;99.90;;;;;;5094407;28;20044;-49
2023/04/25 00:29:41;;;;;;;3.03;2.38;;;6.20;99.90;;;;;;5093763;28;20040;-49
2023/04/25 00:32:08;;;;;;;5.72;2.33;;;6.20;99.90;;;;;;5091636;28;20709;-51
2023/04/25 00:34:35;;;;;;;5.25;2.97;;;6.30;99.90;;;;;;5068354;28;20037;-50
2023/04/25 00:37:02;;;;;;;3.70;2.28;;;6.20;99.90;;;;;;5072834;28;20053;-48
2023/04/25 00:39:29;;;;;;;5.53;2.50;;;6.20;99.90;;;;;;5085735;28;20078;-50
2023/04/25 00:41:57;;;;;;;3.90;2.08;;;6.30;99.90;;;;;;5059477;28;20052;-47
2023/04/25 00:44:26;;;;;;;3.50;2.10;;;6.30;99.90;;;;;;5090581;28;20043;-48
2023/04/25 00:46:54;;;;;;;2.72;2.00;;;6.30;99.90;;;;;;5088529;28;20043;-48
2023/04/25 00:49:21;;;;;;;6.43;2.08;;;6.40;99.90;;;;;;5092647;28;20385;-48
2023/04/25 00:51:48;;;;;;;4.65;2.22;;;6.40;99.90;;;;;;5075175;28;20071;-48
2023/04/25 00:54:15;;;;;;;2.42;1.75;;;6.40;99.90;;;;;;5079442;28;20044;-48
2023/04/25 00:56:42;;;;;;;3.30;2.25;;;6.50;99.90;;;;;;5094116;28;20548;-50
2023/04/25 00:59:10;;;;;;;4.18;2.30;;;6.50;99.90;;;;;;5074698;28;20454;-48
2023/04/25 01:01:39;;;;;;;3.28;1.98;;;6.40;99.90;;;;;;5069260;28;20409;-48
2023/04/25 01:04:06;;;;;;;3.35;1.90;;;6.50;99.90;;;;;;5075804;28;20058;-49
2023/04/25 01:06:34;;;;;;;3.47;1.95;;;6.50;99.90;;;;;;5074654;28;20048;-48
2023/04/25 01:09:01;;;;;;;3.00;2.25;;;6.50;99.90;;;;;;5063796;28;20053;-47
2023/04/25 01:11:28;;;;;;;3.45;2.20;;;6.50;99.90;;;;;;5093592;28;20044;-49
2023/04/25 01:13:55;;;;;;;2.00;1.80;;;6.50;99.90;;;;;;5075875;28;20181;-49
2023/04/25 01:16:23;;;;;;;3.92;1.90;;;6.50;99.90;;;;;;5089636;28;20063;-48
2023/04/25 01:18:51;;;;;;;4.82;2.28;;;6.50;99.90;;;;;;5084681;28;20054;-48
2023/04/25 01:21:18;;;;;;;3.20;1.92;;;6.40;99.90;;;;;;5057394;28;20056;-48
2023/04/25 01:23:47;;;;;;;5.18;2.00;;;6.40;99.90;;;;;;5055510;28;20102;-48
2023/04/25 01:26:15;;;;;;;4.47;2.20;;;6.40;99.90;;;;;;5060446;28;20450;-49
2023/04/25 01:28:42;;;;;;;2.55;1.65;;;6.40;99.90;;;;;;5074826;28;20044;-48
2023/04/25 01:31:12;;;;;;;5.55;2.15;;;6.40;99.90;;;;;;5074970;28;20136;-52
2023/04/25 01:33:38;;;;;;;4.95;2.00;;;6.50;99.90;;;;;;5093333;28;20036;-48
2023/04/25 01:36:05;;;;;;;3.85;2.28;;;6.50;99.90;;;;;;5064756;28;20051;-48
2023/04/25 01:38:35;;;;;;;4.00;2.22;;;6.50;99.90;;;;;;5074765;28;20139;-49
2023/04/25 01:41:02;;;;;;;5.82;2.13;;;6.40;99.90;;;;;;5075058;28;20044;-48
2023/04/25 01:43:29;;;;;;;3.50;2.13;;;6.40;99.90;;;;;;5065421;28;20109;-48
2023/04/25 01:45:56;;;;;;;3.95;2.13;;;6.30;99.90;;;;;;5074959;28;20658;-51
2023/04/25 01:48:23;;;;;;;4.95;2.38;;;6.30;99.90;;;;;;5073834;28;20068;-49
2023/04/25 01:50:50;;;;;;;5.13;2.92;;;6.30;99.90;;;;;;5086504;28;20071;-48
2023/04/25 01:53:17;;;;;;;3.38;2.40;;;6.30;99.90;;;;;;5083365;28;20047;-49
2023/04/25 01:55:44;;;;;;;6.45;2.40;;;6.30;99.90;;;;;;5066703;28;20454;-48
2023/04/25 01:58:14;;;;;;;4.68;2.45;;;6.40;99.90;;;;;;5074464;28;20055;-48
2023/04/25 02:00:56;;;;;;;5.80;2.40;;;6.40;99.90;;;;;;5074359;28;20051;-49
2023/04/25 02:03:26;;;;;;;6.90;3.65;;;6.40;99.90;;;;;;5069701;28;20494;-48
2023/04/25 02:05:54;;;;;;;4.68;3.20;;;6.40;99.90;;;;;;5074756;28;20041;-48
2023/04/25 02:08:22;;;;;;;5.13;3.22;;;6.50;99.90;;;;;;5073311;28;20143;-48
2023/04/25 02:10:49;;;;;;;3.22;2.22;;;6.50;99.90;;;;;;5069273;28;20520;-48
2023/04/25 02:13:19;;;;;;;3.63;2.50;;;6.50;99.90;;;;;;5065657;28;20040;-49
2023/04/25 02:16:02;;;;;;;3.97;2.22;;;6.50;99.90;;;;;;5074344;28;20054;-48
2023/04/25 02:18:31;;;;;;;3.97;2.30;;;6.50;99.90;;;;;;5071050;28;20048;-47
2023/04/25 02:20:59;;;;;;;3.55;1.95;;;6.50;99.90;;;;;;5071081;28;20135;-48
2023/04/25 02:23:26;;;;;;;2.63;1.80;;;6.60;99.90;;;;;;5073063;28;20142;-48
2023/04/25 02:25:55;;;;;;;3.70;2.20;;;6.60;99.90;;;;;;5074102;28;20097;-48
2023/04/25 02:28:21;;;;;;;3.75;2.03;;;6.60;99.90;;;;;;5065389;28;20044;-49
2023/04/25 02:30:48;;;;;;;5.43;1.95;;;6.50;99.90;;;;;;5073670;28;20073;-48
2023/04/25 02:33:16;;;;;;;3.55;2.03;;;6.50;99.90;;;;;;5092095;28;20051;-50
2023/04/25 02:35:43;;;;;;;3.83;2.10;;;6.50;99.90;;;;;;5092300;28;20408;-50
2023/04/25 02:38:10;;;;;;;5.30;2.08;;;6.50;99.90;;;;;;5080233;28;20052;-49
2023/04/25 02:40:38;;;;;;;4.63;2.05;;;6.50;99.90;;;;;;5073568;28;20036;-48
2023/04/25 02:43:05;;;;;;;4.18;1.95;;;6.50;99.90;;;;;;5073727;28;20056;-48
2023/04/25 02:45:31;;;;;;;4.63;2.25;;;6.50;99.90;;;;;;5082742;28;20040;-49
2023/04/25 02:47:58;;;;;;;5.15;2.40;;;6.50;99.90;;;;;;5073197;28;20047;-48
2023/04/25 02:50:25;;;;;;;7.85;2.25;;;6.40;99.90;;;;;;5070071;28;20116;-47
2023/04/25 02:52:52;;;;;;;3.33;2.42;;;6.50;99.90;;;;;;5069934;28;20047;-48
2023/04/25 02:55:25;;;;;;;3.30;2.28;;;6.50;99.90;;;;;;5072871;28;20101;-48
2023/04/25 02:57:55;;;;;;;3.88;2.22;;;6.50;99.90;;;;;;5073587;28;20036;-48
2023/04/25 03:00:34;;;;;;;2.95;2.20;;;6.50;99.90;;;;;;5060714;28;20465;-48
2023/04/25 03:03:01;;;;;;;5.85;1.95;;;6.50;99.90;;;;;;5072894;28;20050;-50
2023/04/25 03:05:28;;;;;;;5.78;2.53;;;6.50;99.90;;;;;;5072685;28;20055;-48
2023/04/25 03:07:55;;;;;;;3.00;2.00;;;6.50;99.90;;;;;;5073137;28;20605;-49
2023/04/25 03:10:22;;;;;;;4.38;1.90;;;6.50;99.90;;;;;;5085996;28;20056;-48
2023/04/25 03:12:49;;;;;;;3.42;2.20;;;6.50;99.90;;;;;;5072587;28;20070;-48
2023/04/25 03:15:16;;;;;;;2.78;1.98;;;6.50;99.90;;;;;;5061296;28;20043;-49
2023/04/25 03:17:43;;;;;;;;;;;6.40;99.90;;;;;;5090961;28;20032;-48
2023/04/25 03:20:10;;;;;;;5.35;2.03;;;6.40;99.90;;;;;;5089907;28;19920;-48
2023/04/25 03:22:37;;;;;;;;;;;6.40;99.90;;;;;;5089394;28;20105;-48
2023/04/25 03:25:04;;;;;;;2.88;1.85;;;6.40;99.90;;;;;;5061451;28;19927;-47
2023/04/25 03:27:31;;;;;;;;;;;6.30;99.90;;;;;;5070500;28;20552;-48
2023/04/25 03:29:58;;;;;;;3.13;2.05;;;6.30;99.90;;;;;;5086755;28;20368;-49
2023/04/25 03:32:25;;;;;;;2.72;2.05;;;6.30;99.90;;;;;;5072133;28;20055;-48
2023/04/25 03:34:51;;;;;;;5.95;2.55;;;6.30;99.90;;;;;;5073587;28;20481;-48
2023/04/25 03:37:18;;;;;;;5.97;2.70;;;6.30;99.90;;;;;;5067643;28;20040;-47
2023/04/25 03:39:45;;;;;;;4.63;2.42;;;6.30;99.90;;;;;;5064862;28;20464;-48
2023/04/25 03:42:12;;;;;;;4.85;2.35;;;6.40;99.90;;;;;;5063311;28;20139;-50
2023/04/25 03:44:38;;;;;;;2.80;2.10;;;6.30;99.90;;;;;;5069543;28;20052;-48
2023/04/25 03:47:06;;;;;;;4.93;2.58;;;6.30;99.90;;;;;;5069403;28;20062;-48
2023/04/25 03:49:35;;;;;;;7.50;2.22;;;6.40;99.90;;;;;;5065246;28;20071;-48
2023/04/25 03:52:04;;;;;;;4.32;2.17;;;6.40;99.90;;;;;;5066947;28;20065;-49
2023/04/25 03:54:35;;;;;;;4.25;2.35;;;6.40;99.90;;;;;;5073577;28;20524;-48
2023/04/25 03:57:06;;;;;;;7.00;2.53;;;6.30;99.90;;;;;;5073824;28;20493;-48
2023/04/25 03:59:36;;;;;;;4.90;2.13;;;6.30;99.90;;;;;;5067238;28;20219;-48
2023/04/25 04:02:03;;;;;;;5.60;2.45;;;6.30;99.90;;;;;;5071886;28;20052;-50
2023/04/25 04:04:32;;;;;;;5.63;2.05;;;6.20;99.90;;;;;;5074523;28;20083;-48
2023/04/25 04:07:00;;;;;;;3.80;2.17;;;6.30;99.90;;;;;;5076993;28;20463;-48
2023/04/25 04:09:31;;;;;;;5.47;2.35;;;6.40;99.90;;;;;;5067751;28;20036;-50
2023/04/25 04:12:01;;;;;;;4.55;1.90;;;6.40;99.90;;;;;;5086577;22;20098;-50
2023/04/25 04:14:30;;;;;;;6.45;2.20;;;6.40;99.90;;;;;;5057683;28;20710;-50
2023/04/25 04:16:56;;;;;;;2.50;2.20;;;6.40;99.90;;;;;;5071452;28;20051;-48
2023/04/25 04:19:23;;;;;;;3.03;1.70;;;6.40;99.90;;;;;;5066821;28;20045;-48
2023/04/25 04:21:59;;;;;;;3.38;2.60;;;6.40;99.90;;;;;;5069866;28;20044;-49
2023/04/25 04:24:25;;;;;;;2.53;2.20;;;6.40;99.90;;;;;;5069727;28;20449;-49
2023/04/25 04:26:58;;;;;;;4.55;2.33;;;6.40;99.90;;;;;;5061499;28;20041;-49
2023/04/25 04:29:36;;;;;;;;;;;6.40;99.90;;;;;;5073690;28;20032;-48
2023/04/25 04:32:10;;;;;;;3.10;2.00;;;6.40;99.90;;;;;;5080902;28;20384;-48
2023/04/25 04:34:39;;;;;;;6.60;2.60;;;6.40;99.90;;;;;;5068779;28;20041;-49
2023/04/25 04:37:06;;;;;;;4.95;2.45;;;6.40;99.90;;;;;;5072818;28;20144;-49
2023/04/25 04:39:34;;;;;;;3.72;2.20;;;6.40;99.90;;;;;;5069279;28;20588;-49
2023/04/25 04:42:14;;;;;;;3.05;2.05;;;6.50;99.90;;;;;;5064225;28;20048;-48
2023/04/25 04:44:54;;;;;;;4.05;2.17;;;6.50;99.90;;;;;;5073065;28;20040;-49
2023/04/25 04:47:36;;;;;;;5.22;2.38;;;6.50;99.90;;;;;;5066730;28;20509;-49
2023/04/25 04:50:27;;;;;;;4.03;2.35;;;6.50;99.90;;;;;;5073500;28;20060;-50
2023/04/25 04:53:08;;;;;;;7.13;2.17;;;6.50;99.90;;;;;;5072556;28;20041;-49
2023/04/25 04:55:37;;;;;;;4.10;2.10;;;6.60;99.90;;;;;;5065466;28;20155;-48
2023/04/25 04:58:11;;;;;;;4.53;1.98;;;6.60;99.90;;;;;;5071833;28;20048;-49
2023/04/25 05:00:48;;;;;;;4.93;2.53;;;6.60;99.90;;;;;;5060903;28;20135;-49
2023/04/25 05:03:54;;;;;;;5.28;2.90;;;6.70;99.90;;;;;;4970512;28;20189;-47
2023/04/25 05:06:54;;;;;;;3.47;2.50;;;6.70;99.90;;;;;;4946347;28;20415;-49
2023/04/25 05:09:40;;;;;;;3.20;1.85;;;6.80;99.90;;;;;;5052003;28;20052;-50
2023/04/25 05:12:10;;;;;;;3.38;2.22;;;6.90;99.90;;;;;;5072180;28;20697;-48
2023/04/25 05:14:49;;;;;;;6.10;2.30;;;6.90;99.90;;;;;;5068464;28;20036;-49
2023/04/25 05:17:35;;;;;;;5.60;2.25;;;6.90;99.90;;;;;;5055886;28;20167;-48
2023/04/25 05:20:23;;;;;;;3.10;2.10;;;7.00;99.90;;;;;;5070932;28;20048;-48
2023/04/25 05:23:03;;;;;;;2.25;1.67;;;7.20;99.90;;;;;;5070461;28;20098;-49
2023/04/25 05:25:53;;;;;;;3.55;2.22;;;7.20;99.90;;;;;;5075557;28;20119;-48
2023/04/25 05:28:50;;;;;;;4.40;2.05;;;7.30;99.90;;;;;;5070824;28;20075;-49
2023/04/25 05:31:40;;;;;;;3.42;2.40;;;7.40;99.90;;;;;;5070178;28;20039;-49
2023/04/25 05:34:10;;;;;;;5.15;2.63;;;7.40;99.90;;;;;;5065468;28;20046;-48
2023/04/25 05:36:50;;;;;;;4.72;2.30;;;7.40;99.90;;;;;;5066936;28;20098;-49
2023/04/25 05:39:17;;;;;;;4.40;2.35;;;7.30;99.90;;;;;;5071090;28;20044;-50
2023/04/25 05:42:03;;;;;;;4.47;2.40;;;7.40;99.90;;;;;;5072882;28;20055;-48
2023/04/25 05:44:49;;;;;;;4.93;2.40;;;7.50;99.90;;;;;;5073001;28;20186;-48
2023/04/25 05:47:32;;;;;;;3.20;2.00;;;7.40;99.90;;;;;;5061643;28;20118;-49
2023/04/25 05:50:18;;;;;;;3.22;2.22;;;7.40;99.90;;;;;;5071293;28;20048;-49
2023/04/25 05:52:51;;;;;;;3.92;2.53;;;7.50;99.90;;;;;;5067501;28;20083;-49
2023/04/25 05:55:29;;;;;;;3.60;2.17;;;7.60;99.90;;;;;;5059381;28;20448;-51
2023/04/25 05:57:57;;;;;;;4.75;2.00;;;7.60;99.90;;;;;;5054416;28;20501;-49
2023/04/25 06:00:24;;;;;;;5.35;2.33;;;7.60;99.90;;;;;;5054441;28;20051;-48
2023/04/25 06:02:51;;;;;;;7.65;1.95;;;7.60;99.90;;;;;;5070787;28;20089;-49
2023/04/25 06:05:18;;;;;;;2.80;2.08;;;7.60;99.90;;;;;;5071622;28;20050;-48
2023/04/25 06:07:46;;;;;;;5.47;2.65;;;7.80;99.90;;;;;;5070400;28;20036;-48
2023/04/25 06:10:14;;;;;;;5.25;2.80;;;7.90;99.90;;;;;;5070753;28;20518;-50
2023/04/25 06:12:42;;;;;;;4.65;2.83;;;7.90;99.90;;;;;;5070598;28;20041;-48
2023/04/25 06:15:09;;;;;;;8.27;2.90;;;7.90;99.90;;;;;;5070393;28;20041;-49
2023/04/25 06:17:54;;;;;;;5.90;2.65;;;7.90;99.90;;;;;;5071264;28;20041;-49
2023/04/25 06:20:23;;;;;;;4.93;2.30;;;7.90;99.90;;;;;;5070497;28;20044;-49
2023/04/25 06:22:52;;;;;;;3.88;2.45;;;8.00;99.90;;;;;;5055325;28;20037;-49
2023/04/25 06:25:21;;;;;;;4.55;2.60;;;8.00;99.90;;;;;;5059355;28;20452;-49
2023/04/25 06:27:48;;;;;;;4.13;2.72;;;8.10;99.90;;;;;;5070075;28;20548;-48
2023/04/25 06:30:18;;;;;;;;;;;8.20;99.90;;;;;;5069878;28;20412;-48
2023/04/25 06:32:44;;;;;;;7.47;2.67;;;8.20;99.90;;;;;;5066634;28;19924;-49
2023/04/25 06:35:12;;;;;;;5.57;2.92;;;8.20;99.90;;;;;;5054449;28;20515;-50
2023/04/25 06:37:40;;;;;;;4.47;2.70;;;8.20;99.90;;;;;;5067032;28;20048;-49
2023/04/25 06:40:07;;;;;;;7.75;3.15;;;8.20;99.90;;;;;;5053741;28;20048;-49
2023/04/25 06:42:34;;;;;;;;;;;8.40;99.90;;;;;;5070222;28;20044;-48
2023/04/25 06:45:21;;;;;;;3.85;2.30;;;8.40;99.90;;;;;;5071400;28;19927;-48
2023/04/25 06:47:48;;;;;;;3.92;1.75;;;8.40;99.90;;;;;;5076367;28;20037;-48
2023/04/25 06:50:14;;;;;;;5.10;3.03;;;8.40;99.90;;;;;;5080642;28;20453;-48
2023/04/25 06:52:42;;;;;;;6.57;2.88;;;8.30;99.90;;;;;;5070423;28;20093;-48
2023/04/25 06:55:10;;;;;;;5.20;2.92;;;8.20;99.90;;;;;;5070291;28;20052;-48
2023/04/25 06:57:55;;;;;;;5.25;2.83;;;8.10;99.90;;;;;;5066961;28;20045;-48
2023/04/25 07:00:40;;;;;;;4.78;2.67;;;8.00;99.90;;;;;;5068073;28;20421;-49
2023/04/25 07:03:07;;;;;;;7.85;2.67;;;7.90;99.90;;;;;;5068953;28;20405;-48
2023/04/25 07:05:34;;;;;;;7.63;2.65;;;8.00;99.90;;;;;;5069500;28;20056;-47
2023/04/25 07:08:02;;;;;;;5.05;3.10;;;7.80;99.90;;;;;;5070231;28;20063;-48
2023/04/25 07:10:29;;;;;;;4.50;3.20;;;7.90;99.90;;;;;;5074349;28;20094;-47
2023/04/25 07:12:56;;;;;;;5.25;2.78;;;8.00;99.90;;;;;;5082070;28;20089;-48
2023/04/25 07:15:23;;;;;;;6.28;3.17;;;8.20;99.90;;;;;;5069383;28;20040;-48
2023/04/25 07:17:50;;;;;;;5.60;2.50;;;8.30;99.90;;;;;;5070044;28;20049;-48
2023/04/25 07:20:17;;;;;;;5.18;2.67;;;8.50;99.90;;;;;;5069530;28;20500;-48
2023/04/25 07:22:44;;;;;;;14.80;7.70;;;8.80;99.90;;;;;;5066312;28;20084;-48
2023/04/25 07:25:11;;;;;;;8.10;4.28;;;9.00;99.90;;;;;;5068856;28;20045;-48
2023/04/25 07:27:39;;;;;;;6.72;4.05;;;9.00;99.90;;;;;;5069697;28;20048;-49
2023/04/25 07:30:13;;;;;;;8.55;4.75;;;9.00;99.90;;;;;;5069940;28;20098;-48
2023/04/25 07:32:40;;;;;;;6.35;3.30;;;9.00;99.90;;;;;;5076230;28;20393;-48
2023/04/25 07:35:07;;;;;;;5.78;3.33;;;9.20;99.90;;;;;;5081909;28;20066;-48
2023/04/25 07:37:35;;;;;;;6.75;3.30;;;9.10;99.90;;;;;;5067443;28;20032;-48
2023/04/25 07:40:16;;;;;;;5.75;2.67;;;9.20;99.90;;;;;;5069126;28;20048;-48
2023/04/25 07:42:46;;;;;;;8.48;3.45;;;9.20;99.90;;;;;;5065684;28;20028;-47
2023/04/25 07:45:17;;;;;;;3.72;2.65;;;9.10;99.90;;;;;;5070081;28;20044;-48
2023/04/25 07:47:44;;;;;;;3.25;2.33;;;8.90;99.90;;;;;;5063262;28;20041;-48
2023/04/25 07:50:11;;;;;;;4.95;2.33;;;8.90;99.90;;;;;;5068397;28;20144;-48
2023/04/25 07:52:38;;;;;;;5.63;2.35;;;9.20;99.90;;;;;;5068389;28;20063;-49
2023/04/25 07:55:14;;;;;;;3.45;2.60;;;9.40;99.90;;;;;;5069054;28;20044;-47
2023/04/25 07:57:53;;;;;;;5.80;2.35;;;9.60;99.90;;;;;;5069206;28;20515;-48
2023/04/25 08:00:20;;;;;;;4.05;2.58;;;9.40;99.90;;;;;;5060738;28;20508;-48
2023/04/25 08:02:53;;;;;;;3.00;2.42;;;9.30;99.90;;;;;;5082988;28;20079;-48
2023/04/25 08:05:21;;;;;;;2.70;2.00;;;9.50;99.90;;;;;;5067928;28;20048;-48
2023/04/25 08:07:55;;;;;;;7.40;1.95;;;9.80;99.90;;;;;;5061247;28;20051;-48
2023/04/25 08:10:22;;;;;;;;;;;10.10;99.90;;;;;;5068822;28;20487;-48
2023/04/25 08:12:49;;;;;;;6.80;2.33;;;10.30;99.90;;;;;;5068352;28;20019;-48
2023/04/25 08:15:16;;;;;;;2.55;1.85;;;10.80;99.90;;;;;;5067665;28;20524;-48
2023/04/25 08:17:43;;;;;;;13.25;1.95;;;11.20;99.90;;;;;;5069072;28;20033;-49
2023/04/25 08:20:11;;;;;;;3.78;1.98;;;11.40;99.90;;;;;;5060840;28;20095;-48
2023/04/25 08:22:40;;;;;;;4.40;2.00;;;11.80;99.90;;;;;;5060883;28;20543;-48
2023/04/25 08:25:27;;;;;;;4.70;3.17;;;11.90;99.90;;;;;;5032067;28;20076;-48
2023/04/25 08:27:54;;;;;;;4.95;2.33;;;12.30;99.90;;;;;;5078088;28;20131;-48
2023/04/25 08:30:22;;;;;;;4.13;2.40;;;12.80;99.90;;;;;;5088772;28;20799;-48
2023/04/25 08:32:50;;;;;;;4.60;2.30;;;12.70;99.90;;;;;;5078980;28;20045;-48
2023/04/25 08:35:34;;;;;;;4.28;2.15;;;12.20;99.90;;;;;;5063545;28;20048;-47
2023/04/25 08:38:01;;;;;;;;;;;12.20;99.90;;;;;;5069666;28;20149;-49
2023/04/25 08:40:30;;;;;;;3.83;2.20;;;12.40;99.90;;;;;;5072595;28;19927;-48
2023/04/25 08:43:03;;;;;;;2.35;1.80;;;12.90;99.90;;;;;;5072054;28;20048;-47
2023/04/25 08:45:32;;;;;;;2.67;2.10;;;13.10;99.90;;;;;;5074513;28;20044;-48
2023/04/25 08:48:00;;;;;;;5.78;1.95;;;13.20;99.90;;;;;;5075889;28;20128;-48
2023/04/25 08:50:27;;;;;;;4.53;2.13;;;13.30;99.90;;;;;;5073719;28;20396;-48
2023/04/25 08:53:01;;;;;;;4.78;2.00;;;13.30;99.90;;;;;;5068837;28;20406;-47
2023/04/25 08:55:29;;;;;;;5.60;2.03;;;13.50;99.90;;;;;;5072722;28;20140;-48
2023/04/25 08:58:00;;;;;;;5.20;2.00;;;13.80;99.90;;;;;;5071764;28;20046;-48
2023/04/25 09:00:28;;;;;;;6.25;1.70;;;13.90;99.90;;;;;;5072681;28;20088;-48
2023/04/25 09:02:56;;;;;;;4.72;1.70;;;14.00;99.90;;;;;;5075482;28;20441;-49
2023/04/25 09:05:28;;;;;;;2.33;1.42;;;13.80;99.90;;;;;;5074205;28;20522;-48
2023/04/25 09:07:56;;;;;;;2.92;1.58;;;13.60;99.90;;;;;;5073294;28;20106;-48
2023/04/25 09:10:23;;;;;;;4.43;1.42;;;13.00;99.90;;;;;;5070795;28;20451;-48
2023/04/25 09:13:02;;;;;;;1.65;1.10;;;12.50;99.90;;;;;;5072606;28;20049;-47
2023/04/25 09:15:29;;;;;;;2.53;1.50;;;12.00;99.90;;;;;;5071977;28;20050;-48
2023/04/25 09:18:06;;;;;;;2.75;1.40;;;11.40;99.90;;;;;;5067646;28;20047;-48
2023/04/25 09:20:43;;;;;;;5.10;1.73;;;11.00;99.90;;;;;;5069358;28;20044;-48
2023/04/25 09:23:14;;;;;;;4.43;1.20;;;10.70;99.90;;;;;;5073483;28;20048;-47
2023/04/25 09:25:42;;;;;;;3.53;1.30;;;10.50;99.90;;;;;;5072297;28;20052;-47
2023/04/25 09:28:10;;;;;;;3.22;1.60;;;10.50;99.90;;;;;;5069728;28;20037;-48
2023/04/25 09:30:37;;;;;;;4.00;1.75;;;10.60;99.90;;;;;;5073229;28;20040;-48
2023/04/25 09:33:32;;;;;;;3.58;1.63;;;10.80;99.90;;;;;;5069972;28;20056;-48
2023/04/25 09:36:08;;;;;;;5.43;2.20;;;11.10;99.90;;;;;;5072161;28;20040;-48
2023/04/25 09:39:17;;;;;;;3.97;1.40;;;11.70;99.90;;;;;;5010532;28;20123;-48
2023/04/25 09:41:54;;;;;;;5.10;2.28;;;12.40;99.90;;;;;;4996281;28;20624;-48
2023/04/25 09:44:24;;;;;;;5.60;1.50;;;12.80;99.90;;;;;;5039297;28;20075;-49
2023/04/25 09:46:53;;;;;;;1.73;1.17;;;12.80;99.90;;;;;;5070675;28;20040;-50
2023/04/25 09:49:24;;;;;;;8.98;1.50;;;12.90;99.90;;;;;;5070827;28;20049;-48
2023/04/25 09:52:06;;;;;;;4.88;1.27;;;12.90;99.90;;;;;;5068059;28;20037;-48
2023/04/25 09:54:53;;;;;;;2.10;1.40;;;13.10;99.90;;;;;;5065527;28;20447;-49
2023/04/25 09:57:27;;;;;;;3.38;1.33;;;13.10;99.90;;;;;;5070398;28;20132;-48
2023/04/25 09:59:56;;;;;;;2.67;1.15;;;13.00;99.90;;;;;;5070973;28;20036;-49
2023/04/25 10:02:27;;;;;;;4.28;1.50;;;12.90;99.90;;;;;;5070313;28;20048;-49
2023/04/25 10:05:03;;;;;;;4.80;1.20;;;13.00;99.90;;;;;;5071773;28;20045;-52
2023/04/25 10:07:38;;;;;;;4.15;1.45;;;13.10;99.90;;;;;;5070289;28;20040;-49
2023/04/25 10:13:45;;;;;;;3.42;1.17;;;13.50;99.90;;;;;;5068370;28;20048;-51
2023/04/25 10:16:13;;;;;;;3.05;1.25;;;13.70;99.90;;;;;;5047559;28;20049;-47
2023/04/25 10:18:40;;;;;;;3.10;1.33;;;13.70;99.90;;;;;;5060380;28;20087;-47
2023/04/25 10:21:07;;;;;;;2.60;1.17;;;13.70;99.90;;;;;;5051148;28;20116;-46
2023/04/25 10:23:35;;;;;;;8.15;1.38;;;14.30;99.90;;;;;;5050417;28;20448;-51
2023/04/25 10:26:02;;;;;;;1.00;0.90;;;13.90;99.30;;;;;;5051948;28;20103;-47
2023/04/25 10:28:28;;;;;;;2.35;1.10;;;14.00;99.90;;;;;;5050521;28;20067;-46
2023/04/25 10:31:03;;;;;;;1.63;1.13;;;14.10;98.30;;;;;;5052308;28;20049;-50
2023/04/25 10:33:38;;;;;;;1.95;1.02;;;14.00;96.30;;;;;;5051842;28;20065;-49
2023/04/25 10:36:09;;;;;;;3.15;1.40;;;13.90;97.10;;;;;;5051212;28;20048;-49
2023/04/25 10:38:37;;;;;;;2.78;1.40;;;13.60;99.90;;;;;;5051512;28;20036;-49
2023/04/25 10:41:08;;;;;;;2.00;1.30;;;13.40;98.20;;;;;;5051618;28;20044;-49
2023/04/25 10:43:41;;;;;;;2.33;1.00;;;13.20;98.40;;;;;;5052142;28;20049;-49
2023/04/25 10:46:18;;;;;;;4.07;1.25;;;13.30;99.90;;;;;;5050889;28;20053;-48
2023/04/25 10:48:50;;;;;;;4.10;1.42;;;13.60;99.90;;;;;;5051487;28;20076;-46
2023/04/25 10:51:21;;;;;;;3.55;1.50;;;13.60;97.50;;;;;;5051630;28;20041;-51
2023/04/25 10:54:08;;;;;;;3.17;1.35;;;13.40;98.30;;;;;;5050179;28;20048;-49
2023/04/25 10:56:41;;;;;;;6.13;1.50;;;13.20;98.70;;;;;;5030986;28;20056;-47
2023/04/25 10:59:15;;;;;;;1.90;1.13;;;13.10;99.50;;;;;;5031936;28;20045;-46
2023/04/25 11:01:44;;;;;;;3.95;1.00;;;13.20;99.90;;;;;;5051870;28;20103;-49
2023/04/25 11:04:38;;;;;;;3.70;1.27;;;13.30;99.60;;;;;;5050576;28;20045;-48
2023/04/25 11:07:15;;;;;;;7.30;1.63;;;13.50;99.20;;;;;;5050261;28;20049;-49
2023/04/25 11:09:41;;;;;;;1.73;1.35;;;13.60;99.90;;;;;;5050427;28;20110;-49
2023/04/25 11:12:11;;;;;;;5.25;1.20;;;13.70;99.70;;;;;;5049956;28;20562;-49
2023/04/25 11:14:38;;;;;;;2.55;1.20;;;13.70;99.40;;;;;;5051554;28;20104;-48
2023/04/25 11:17:10;;;;;;;2.88;1.17;;;13.90;98.60;;;;;;5049610;28;20505;-52
2023/04/25 11:19:37;;;;;;;1.83;1.20;;;14.30;97.20;;;;;;5050796;28;20044;-49
2023/04/25 11:22:05;;;;;;;2.38;1.30;;;14.60;98.30;;;;;;5050159;28;20045;-48
2023/04/25 11:24:32;;;;;;;;;;;15.00;97.60;;;;;;5051423;28;20049;-51
2023/04/25 11:27:02;;;;;;;2.28;1.20;;;15.00;95.60;;;;;;5051356;28;19920;-48
2023/04/25 11:29:29;;;;;;;1.20;0.98;;;14.80;95.40;;;;;;5048752;28;20037;-48
2023/04/25 11:32:00;;;;;;;2.25;1.30;;;14.50;95.20;;;;;;5051139;28;20044;-48
2023/04/25 11:34:30;;;;;;;4.40;1.30;;;14.60;96.80;;;;;;5045516;28;20037;-48
2023/04/25 11:36:57;;;;;;;1.83;1.20;;;14.80;98.80;;;;;;5048474;28;20424;-49
2023/04/25 11:39:25;;;;;;;3.65;1.30;;;14.60;95.90;;;;;;5049773;28;20041;-49
2023/04/25 11:41:52;;;;;;;;;;;14.50;96.30;;;;;;5047863;28;20102;-49
2023/04/25 11:44:19;;;;;;;3.20;1.17;;;14.40;97.40;;;;;;5049590;28;19925;-49
2023/04/25 11:46:46;;;;;;;2.95;0.90;;;14.00;96.70;;;;;;5030068;28;20128;-48
2023/04/25 11:49:14;;;;;;;1.67;0.95;;;13.60;96.40;;;;;;5030437;28;20143;-48
2023/04/25 11:51:46;;;;;;;1.88;0.73;;;13.30;96.30;;;;;;5035242;28;20033;-48
2023/04/25 11:54:13;;;;;;;1.02;0.50;;;12.80;97.60;;;;;;5051073;28;20452;-49
2023/04/25 11:56:44;;;;;;;2.53;0.60;;;13.10;96.80;;;;;;5050330;28;20037;-49
2023/04/25 11:59:12;;;;;;;1.58;0.60;;;13.30;95.50;;;;;;5050123;28;20538;-50
2023/04/25 12:01:41;;;;;;;3.33;0.73;;;13.40;93.00;;;;;;5050725;28;20098;-50
2023/04/25 12:04:19;;;;;;;2.15;0.60;;;13.30;92.50;;;;;;5051393;28;20102;-49
2023/04/25 12:06:48;;;;;;;2.38;0.95;;;13.40;94.70;;;;;;5049511;28;20065;-49
2023/04/25 12:09:18;;;;;;;1.75;0.68;;;13.70;93.50;;;;;;5049144;28;20041;-48
2023/04/25 12:11:47;;;;;;;1.38;0.52;;;14.10;91.00;;;;;;5054140;28;20041;-49
2023/04/25 12:14:26;;;;;;;0.70;0.60;;;14.20;91.70;;;;;;5054646;28;20494;-48
2023/04/25 12:16:57;;;;;;;1.17;0.70;;;14.50;90.20;;;;;;5053503;28;20043;-48
2023/04/25 12:19:25;;;;;;;1.95;0.82;;;14.70;91.40;;;;;;5053992;28;20446;-48
2023/04/25 12:21:53;;;;;;;1.98;0.73;;;14.60;89.20;;;;;;5054092;28;20366;-50
2023/04/25 12:24:26;;;;;;;2.08;0.65;;;14.50;91.10;;;;;;5053835;28;20080;-49
2023/04/25 12:27:07;;;;;;;0.82;0.60;;;14.30;92.10;;;;;;5054533;28;20037;-50
2023/04/25 12:29:35;;;;;;;0.80;0.63;;;13.30;93.60;;;;;;5054041;28;20108;-50
2023/04/25 12:32:16;;;;;;;1.20;0.60;;;12.50;96.40;;;;;;5046423;28;20581;-48
2023/04/25 12:34:43;;;;;;;0.20;0.20;;;11.90;96.40;;;;;;5054143;28;20045;-49
2023/04/25 12:37:10;;;;;;;0.20;0.20;;;11.20;97.70;;;;;;5054184;28;20037;-48
2023/04/25 12:39:37;;;;;;;0.95;0.30;;;11.00;99.90;;;;;;5053529;28;20482;-48
2023/04/25 12:42:04;;;;;;;0.50;0.30;;;10.70;99.90;;;;;;5036099;28;20139;-49
2023/04/25 12:44:35;;;;;;;0.30;0.20;;;10.50;99.90;;;;;;5040562;28;20045;-48
2023/04/25 12:47:02;;;;;;;2.83;0.38;;;10.20;99.90;;;;;;5054058;28;20463;-49
2023/04/25 12:49:30;;;;;;;0.43;0.40;;;10.30;99.90;;;;;;5052469;28;20047;-48
2023/04/25 12:51:56;;;;;;;0.40;0.40;;;10.60;99.90;;;;;;5054016;28;20033;-48
2023/04/25 12:54:23;;;;;;;0.30;0.30;;;11.00;99.90;;;;;;5052040;28;20078;-49
2023/04/25 12:56:50;;;;;;;1.95;0.40;;;11.20;99.90;;;;;;5053861;28;20045;-50
2023/04/25 12:59:17;;;;;;;1.08;0.40;;;11.40;99.90;;;;;;5052838;28;20045;-49
2023/04/25 13:01:45;;;;;;;1.00;0.50;;;11.70;99.90;;;;;;5054022;28;20049;-49
2023/04/25 13:04:12;;;;;;;0.52;0.35;;;11.80;99.90;;;;;;5052201;28;20608;-48
2023/04/25 13:06:39;;;;;;;1.52;0.43;;;12.10;99.90;;;;;;5053765;28;20095;-49
2023/04/25 13:09:06;;;;;;;1.27;0.30;;;12.50;99.90;;;;;;5052154;28;20404;-48
2023/04/25 13:11:33;;;;;;;;;;;12.70;99.90;;;;;;5053898;28;20045;-49
2023/04/25 13:14:00;;;;;;;1.10;0.47;;;13.20;99.90;;;;;;5052938;28;19924;-48
2023/04/25 13:16:27;;;;;;;1.60;0.50;;;13.20;99.90;;;;;;5052591;28;20486;-51